sensor_id;sensor_type;location;lat;lon;timestamp;temperature;humidity
68098;DHT22;54886;47.036;15.466;2023-04-25T00:00:46;10.60;83.02
68098;DHT22;54886;47.036;15.466;2023-04-25T00:03:12;10.59;83.64
68098;DHT22;54886;47.036;15.466;2023-04-25T00:05:37;10.56;83.80
68098;DHT22;54886;47.036;15.466;2023-04-25T00:08:03;10.59;83.67
68098;DHT22;54886;47.036;15.466;2023-04-25T00:10:29;10.51;84.56
68098;DHT22;54886;47.036;15.466;2023-04-25T00:12:55;10.53;83.81
68098;DHT22;54886;47.036;15.466;2023-04-25T00:15:20;10.52;84.11
68098;DHT22;54886;47.036;15.466;2023-04-25T00:17:46;10.55;84.29
68098;DHT22;54886;47.036;15.466;2023-04-25T00:20:12;10.49;84.35
68098;DHT22;54886;47.036;15.466;2023-04-25T00:22:37;10.48;84.35
68098;DHT22;54886;47.036;15.466;2023-04-25T00:25:06;10.51;84.29
68098;DHT22;54886;47.036;15.466;2023-04-25T00:27:32;10.44;84.52
68098;DHT22;54886;47.036;15.466;2023-04-25T00:29:57;10.46;83.57
68098;DHT22;54886;47.036;15.466;2023-04-25T00:32:22;10.48;83.68
68098;DHT22;54886;47.036;15.466;2023-04-25T00:34:48;10.49;82.83
68098;DHT22;54886;47.036;15.466;2023-04-25T00:37:13;10.45;83.69
68098;DHT22;54886;47.036;15.466;2023-04-25T00:39:39;10.41;84.47
68098;DHT22;54886;47.036;15.466;2023-04-25T00:42:05;10.40;84.27
68098;DHT22;54886;47.036;15.466;2023-04-25T00:44:31;10.44;83.55
68098;DHT22;54886;47.036;15.466;2023-04-25T00:46:57;10.38;84.62
68098;DHT22;54886;47.036;15.466;2023-04-25T00:49:23;10.35;84.56
68098;DHT22;54886;47.036;15.466;2023-04-25T00:51:48;10.34;84.37
68098;DHT22;54886;47.036;15.466;2023-04-25T00:54:14;10.34;84.03
68098;DHT22;54886;47.036;15.466;2023-04-25T00:56:41;10.37;84.11
68098;DHT22;54886;47.036;15.466;2023-04-25T00:59:06;10.28;84.04
68098;DHT22;54886;47.036;15.466;2023-04-25T01:01:32;10.37;81.48
68098;DHT22;54886;47.036;15.466;2023-04-25T01:03:58;10.41;81.52
68098;DHT22;54886;47.036;15.466;2023-04-25T01:06:24;10.38;82.74
68098;DHT22;54886;47.036;15.466;2023-04-25T01:08:51;10.38;83.32
68098;DHT22;54886;47.036;15.466;2023-04-25T01:11:17;10.40;80.76
68098;DHT22;54886;47.036;15.466;2023-04-25T01:13:42;10.37;81.57
68098;DHT22;54886;47.036;15.466;2023-04-25T01:16:08;10.38;81.21
68098;DHT22;54886;47.036;15.466;2023-04-25T01:18:33;10.31;82.27
68098;DHT22;54886;47.036;15.466;2023-04-25T01:21:11;10.34;81.24
68098;DHT22;54886;47.036;15.466;2023-04-25T01:23:41;10.25;82.73
68098;DHT22;54886;47.036;15.466;2023-04-25T01:26:09;10.20;82.40
68098;DHT22;54886;47.036;15.466;2023-04-25T01:28:35;10.20;82.79
68098;DHT22;54886;47.036;15.466;2023-04-25T01:31:01;10.07;82.69
68098;DHT22;54886;47.036;15.466;2023-04-25T01:33:26;10.15;80.63
68098;DHT22;54886;47.036;15.466;2023-04-25T01:35:52;10.08;82.59
68098;DHT22;54886;47.036;15.466;2023-04-25T01:38:17;10.14;80.86
68098;DHT22;54886;47.036;15.466;2023-04-25T01:40:44;10.07;80.45
68098;DHT22;54886;47.036;15.466;2023-04-25T01:43:10;10.08;81.05
68098;DHT22;54886;47.036;15.466;2023-04-25T01:45:38;10.08;80.10
68098;DHT22;54886;47.036;15.466;2023-04-25T01:48:08;10.03;81.39
68098;DHT22;54886;47.036;15.466;2023-04-25T01:50:33;9.96;81.24
68098;DHT22;54886;47.036;15.466;2023-04-25T01:52:59;9.96;79.77
68098;DHT22;54886;47.036;15.466;2023-04-25T01:55:25;9.85;80.94
68098;DHT22;54886;47.036;15.466;2023-04-25T01:57:50;9.77;80.86
68098;DHT22;54886;47.036;15.466;2023-04-25T02:00:16;9.75;80.98
68098;DHT22;54886;47.036;15.466;2023-04-25T02:02:41;9.63;80.97
68098;DHT22;54886;47.036;15.466;2023-04-25T02:05:07;9.62;81.03
68098;DHT22;54886;47.036;15.466;2023-04-25T02:07:32;9.59;80.96
68098;DHT22;54886;47.036;15.466;2023-04-25T02:09:58;9.60;79.64
68098;DHT22;54886;47.036;15.466;2023-04-25T02:12:23;9.59;80.26
68098;DHT22;54886;47.036;15.466;2023-04-25T02:14:51;9.52;79.29
68098;DHT22;54886;47.036;15.466;2023-04-25T02:17:16;9.56;79.01
68098;DHT22;54886;47.036;15.466;2023-04-25T02:19:43;9.48;80.22
68098;DHT22;54886;47.036;15.466;2023-04-25T02:22:08;9.43;78.83
68098;DHT22;54886;47.036;15.466;2023-04-25T02:24:34;9.45;79.48
68098;DHT22;54886;47.036;15.466;2023-04-25T02:27:00;9.39;79.32
68098;DHT22;54886;47.036;15.466;2023-04-25T02:29:25;9.43;78.46
68098;DHT22;54886;47.036;15.466;2023-04-25T02:31:51;9.39;78.33
68098;DHT22;54886;47.036;15.466;2023-04-25T02:34:16;9.20;79.69
68098;DHT22;54886;47.036;15.466;2023-04-25T02:36:42;9.20;78.82
68098;DHT22;54886;47.036;15.466;2023-04-25T02:39:07;9.21;79.21
68098;DHT22;54886;47.036;15.466;2023-04-25T02:41:32;9.15;79.50
68098;DHT22;54886;47.036;15.466;2023-04-25T02:43:58;9.08;78.92
68098;DHT22;54886;47.036;15.466;2023-04-25T02:46:23;9.08;79.19
68098;DHT22;54886;47.036;15.466;2023-04-25T02:48:48;8.94;79.09
68098;DHT22;54886;47.036;15.466;2023-04-25T02:51:14;8.94;79.22
68098;DHT22;54886;47.036;15.466;2023-04-25T02:53:41;8.93;79.31
68098;DHT22;54886;47.036;15.466;2023-04-25T02:56:07;8.91;80.19
68098;DHT22;54886;47.036;15.466;2023-04-25T02:58:32;8.81;80.42
68098;DHT22;54886;47.036;15.466;2023-04-25T03:00:58;8.77;80.99
68098;DHT22;54886;47.036;15.466;2023-04-25T03:03:23;8.79;80.23
68098;DHT22;54886;47.036;15.466;2023-04-25T03:05:51;8.77;82.17
68098;DHT22;54886;47.036;15.466;2023-04-25T03:08:17;8.84;81.35
68098;DHT22;54886;47.036;15.466;2023-04-25T03:10:43;8.79;82.54
68098;DHT22;54886;47.036;15.466;2023-04-25T03:13:09;8.86;80.79
68098;DHT22;54886;47.036;15.466;2023-04-25T03:15:35;8.88;80.98
68098;DHT22;54886;47.036;15.466;2023-04-25T03:18:01;8.87;82.29
68098;DHT22;54886;47.036;15.466;2023-04-25T03:20:26;8.81;83.50
68098;DHT22;54886;47.036;15.466;2023-04-25T03:22:52;8.79;84.10
68098;DHT22;54886;47.036;15.466;2023-04-25T03:25:17;8.75;84.59
68098;DHT22;54886;47.036;15.466;2023-04-25T03:27:42;8.81;82.74
68098;DHT22;54886;47.036;15.466;2023-04-25T03:30:08;8.83;83.86
68098;DHT22;54886;47.036;15.466;2023-04-25T03:32:34;8.80;84.28
68098;DHT22;54886;47.036;15.466;2023-04-25T03:34:59;8.86;82.82
68098;DHT22;54886;47.036;15.466;2023-04-25T03:37:25;8.87;82.73
68098;DHT22;54886;47.036;15.466;2023-04-25T03:39:50;8.83;85.13
68098;DHT22;54886;47.036;15.466;2023-04-25T03:42:16;8.88;82.73
68098;DHT22;54886;47.036;15.466;2023-04-25T03:44:41;8.86;84.83
68098;DHT22;54886;47.036;15.466;2023-04-25T03:47:07;8.79;86.19
68098;DHT22;54886;47.036;15.466;2023-04-25T03:49:34;8.79;85.95
68098;DHT22;54886;47.036;15.466;2023-04-25T03:52:01;8.81;85.92
68098;DHT22;54886;47.036;15.466;2023-04-25T03:54:26;8.81;85.58
68098;DHT22;54886;47.036;15.466;2023-04-25T03:56:52;8.86;85.35
68098;DHT22;54886;47.036;15.466;2023-04-25T03:59:17;8.84;85.30
68098;DHT22;54886;47.036;15.466;2023-04-25T04:01:43;8.83;85.67
68098;DHT22;54886;47.036;15.466;2023-04-25T04:04:08;8.79;85.53
68098;DHT22;54886;47.036;15.466;2023-04-25T04:06:33;8.65;86.56
68098;DHT22;54886;47.036;15.466;2023-04-25T04:08:59;8.68;86.18
68098;DHT22;54886;47.036;15.466;2023-04-25T04:11:24;8.70;84.42
68098;DHT22;54886;47.036;15.466;2023-04-25T04:13:50;8.72;86.10
68098;DHT22;54886;47.036;15.466;2023-04-25T04:16:15;8.75;85.03
68098;DHT22;54886;47.036;15.466;2023-04-25T04:18:41;8.63;85.79
68098;DHT22;54886;47.036;15.466;2023-04-25T04:21:06;8.65;84.37
68098;DHT22;54886;47.036;15.466;2023-04-25T04:23:31;8.59;85.59
68098;DHT22;54886;47.036;15.466;2023-04-25T04:25:57;8.63;84.45
68098;DHT22;54886;47.036;15.466;2023-04-25T04:28:22;8.60;85.33
68098;DHT22;54886;47.036;15.466;2023-04-25T04:30:48;8.48;85.52
68098;DHT22;54886;47.036;15.466;2023-04-25T04:33:16;8.55;84.43
68098;DHT22;54886;47.036;15.466;2023-04-25T04:35:44;8.49;85.30
68098;DHT22;54886;47.036;15.466;2023-04-25T04:38:09;8.48;85.96
68098;DHT22;54886;47.036;15.466;2023-04-25T04:40:35;8.58;84.99
68098;DHT22;54886;47.036;15.466;2023-04-25T04:43:01;8.56;85.07
68098;DHT22;54886;47.036;15.466;2023-04-25T04:45:27;8.59;85.25
68098;DHT22;54886;47.036;15.466;2023-04-25T04:47:52;8.56;85.78
68098;DHT22;54886;47.036;15.466;2023-04-25T04:50:20;8.52;85.87
68098;DHT22;54886;47.036;15.466;2023-04-25T04:52:46;8.55;85.56
68098;DHT22;54886;47.036;15.466;2023-04-25T04:55:11;8.55;85.71
68098;DHT22;54886;47.036;15.466;2023-04-25T04:57:37;8.58;85.86
68098;DHT22;54886;47.036;15.466;2023-04-25T05:00:04;8.60;83.54
68098;DHT22;54886;47.036;15.466;2023-04-25T05:02:30;8.65;84.59
68098;DHT22;54886;47.036;15.466;2023-04-25T05:04:56;8.68;83.08
68098;DHT22;54886;47.036;15.466;2023-04-25T05:07:21;8.69;84.00
68098;DHT22;54886;47.036;15.466;2023-04-25T05:09:46;8.63;84.60
68098;DHT22;54886;47.036;15.466;2023-04-25T05:12:12;8.62;84.55
68098;DHT22;54886;47.036;15.466;2023-04-25T05:14:37;8.62;84.73
68098;DHT22;54886;47.036;15.466;2023-04-25T05:17:03;8.68;83.85
68098;DHT22;54886;47.036;15.466;2023-04-25T05:19:32;8.69;84.67
68098;DHT22;54886;47.036;15.466;2023-04-25T05:21:57;8.60;84.91
68098;DHT22;54886;47.036;15.466;2023-04-25T05:24:22;8.55;84.70
68098;DHT22;54886;47.036;15.466;2023-04-25T05:26:48;8.60;83.90
68098;DHT22;54886;47.036;15.466;2023-04-25T05:29:13;8.59;84.14
68098;DHT22;54886;47.036;15.466;2023-04-25T05:31:39;8.63;84.15
68098;DHT22;54886;47.036;15.466;2023-04-25T05:34:04;8.63;84.50
68098;DHT22;54886;47.036;15.466;2023-04-25T05:36:29;8.60;84.57
68098;DHT22;54886;47.036;15.466;2023-04-25T05:38:57;8.68;84.11
68098;DHT22;54886;47.036;15.466;2023-04-25T05:41:23;8.75;81.55
68098;DHT22;54886;47.036;15.466;2023-04-25T05:43:48;8.80;82.49
68098;DHT22;54886;47.036;15.466;2023-04-25T05:46:14;8.83;83.25
68098;DHT22;54886;47.036;15.466;2023-04-25T05:48:42;8.87;81.82
68098;DHT22;54886;47.036;15.466;2023-04-25T05:51:07;8.90;83.12
68098;DHT22;54886;47.036;15.466;2023-04-25T05:53:32;8.84;84.73
68098;DHT22;54886;47.036;15.466;2023-04-25T05:55:58;8.87;83.14
68098;DHT22;54886;47.036;15.466;2023-04-25T05:58:23;8.90;83.15
68098;DHT22;54886;47.036;15.466;2023-04-25T06:00:49;8.91;84.21
68098;DHT22;54886;47.036;15.466;2023-04-25T06:03:14;8.91;84.37
68098;DHT22;54886;47.036;15.466;2023-04-25T06:05:43;8.93;84.28
68098;DHT22;54886;47.036;15.466;2023-04-25T06:08:09;9.04;84.46
68098;DHT22;54886;47.036;15.466;2023-04-25T06:10:35;9.00;84.65
68098;DHT22;54886;47.036;15.466;2023-04-25T06:13:03;9.00;84.52
68098;DHT22;54886;47.036;15.466;2023-04-25T06:15:29;9.03;83.53
68098;DHT22;54886;47.036;15.466;2023-04-25T06:17:55;9.04;83.85
68098;DHT22;54886;47.036;15.466;2023-04-25T06:20:20;9.10;84.89
68098;DHT22;54886;47.036;15.466;2023-04-25T06:22:48;9.23;85.70
68098;DHT22;54886;47.036;15.466;2023-04-25T06:25:14;9.30;84.89
68098;DHT22;54886;47.036;15.466;2023-04-25T06:27:40;9.32;84.73
68098;DHT22;54886;47.036;15.466;2023-04-25T06:30:06;9.45;84.15
68098;DHT22;54886;47.036;15.466;2023-04-25T06:32:31;9.55;84.74
68098;DHT22;54886;47.036;15.466;2023-04-25T06:34:57;9.62;83.51
68098;DHT22;54886;47.036;15.466;2023-04-25T06:37:23;9.66;82.98
68098;DHT22;54886;47.036;15.466;2023-04-25T06:39:48;9.76;83.25
68098;DHT22;54886;47.036;15.466;2023-04-25T06:42:13;9.82;82.29
68098;DHT22;54886;47.036;15.466;2023-04-25T06:44:39;9.87;82.86
68098;DHT22;54886;47.036;15.466;2023-04-25T06:47:04;9.96;83.06
68098;DHT22;54886;47.036;15.466;2023-04-25T06:49:30;10.00;83.70
68098;DHT22;54886;47.036;15.466;2023-04-25T06:51:55;10.03;85.13
68098;DHT22;54886;47.036;15.466;2023-04-25T06:54:20;10.11;84.57
68098;DHT22;54886;47.036;15.466;2023-04-25T06:56:46;10.15;83.13
68098;DHT22;54886;47.036;15.466;2023-04-25T06:59:11;10.18;82.80
68098;DHT22;54886;47.036;15.466;2023-04-25T07:01:37;10.27;82.49
68098;DHT22;54886;47.036;15.466;2023-04-25T07:04:02;10.25;82.52
68098;DHT22;54886;47.036;15.466;2023-04-25T07:06:28;10.31;81.68
68098;DHT22;54886;47.036;15.466;2023-04-25T07:08:54;10.34;81.79
68098;DHT22;54886;47.036;15.466;2023-04-25T07:11:19;10.41;81.67
68098;DHT22;54886;47.036;15.466;2023-04-25T07:13:45;10.46;81.80
68098;DHT22;54886;47.036;15.466;2023-04-25T07:16:10;10.56;81.29
68098;DHT22;54886;47.036;15.466;2023-04-25T07:18:36;10.60;81.16
68098;DHT22;54886;47.036;15.466;2023-04-25T07:21:01;10.68;81.37
68098;DHT22;54886;47.036;15.466;2023-04-25T07:23:27;10.73;80.13
68098;DHT22;54886;47.036;15.466;2023-04-25T07:25:52;10.80;81.02
68098;DHT22;54886;47.036;15.466;2023-04-25T07:28:17;10.89;79.93
68098;DHT22;54886;47.036;15.466;2023-04-25T07:30:43;10.92;79.25
68098;DHT22;54886;47.036;15.466;2023-04-25T07:33:08;10.99;78.25
68098;DHT22;54886;47.036;15.466;2023-04-25T07:35:34;11.06;77.76
68098;DHT22;54886;47.036;15.466;2023-04-25T07:38:00;11.08;78.16
68098;DHT22;54886;47.036;15.466;2023-04-25T07:40:25;11.14;76.48
68098;DHT22;54886;47.036;15.466;2023-04-25T07:42:50;11.18;76.37
68098;DHT22;54886;47.036;15.466;2023-04-25T07:45:16;11.24;75.24
68098;DHT22;54886;47.036;15.466;2023-04-25T07:47:41;11.31;74.83
68098;DHT22;54886;47.036;15.466;2023-04-25T07:50:07;11.35;74.47
68098;DHT22;54886;47.036;15.466;2023-04-25T07:52:33;11.42;75.44
68098;DHT22;54886;47.036;15.466;2023-04-25T07:54:58;11.48;75.32
68098;DHT22;54886;47.036;15.466;2023-04-25T07:57:23;11.58;75.31
68098;DHT22;54886;47.036;15.466;2023-04-25T07:59:49;11.63;75.36
68098;DHT22;54886;47.036;15.466;2023-04-25T08:02:15;11.69;75.22
68098;DHT22;54886;47.036;15.466;2023-04-25T08:04:40;11.76;75.10
68098;DHT22;54886;47.036;15.466;2023-04-25T08:07:05;11.83;75.98
68098;DHT22;54886;47.036;15.466;2023-04-25T08:09:31;11.98;74.06
68098;DHT22;54886;47.036;15.466;2023-04-25T08:11:59;12.06;72.25
68098;DHT22;54886;47.036;15.466;2023-04-25T08:14:26;12.01;70.97
68098;DHT22;54886;47.036;15.466;2023-04-25T08:16:51;12.03;69.94
68098;DHT22;54886;47.036;15.466;2023-04-25T08:19:16;12.06;68.45
68098;DHT22;54886;47.036;15.466;2023-04-25T08:21:42;12.20;66.95
68098;DHT22;54886;47.036;15.466;2023-04-25T08:24:07;12.30;66.97
68098;DHT22;54886;47.036;15.466;2023-04-25T08:26:33;12.32;65.39
68098;DHT22;54886;47.036;15.466;2023-04-25T08:28:59;12.40;65.49
68098;DHT22;54886;47.036;15.466;2023-04-25T08:31:25;12.44;64.95
68098;DHT22;54886;47.036;15.466;2023-04-25T08:33:50;12.45;64.16
68098;DHT22;54886;47.036;15.466;2023-04-25T08:36:17;12.46;62.98
68098;DHT22;54886;47.036;15.466;2023-04-25T08:38:44;12.51;62.18
68098;DHT22;54886;47.036;15.466;2023-04-25T08:41:11;12.49;62.47
68098;DHT22;54886;47.036;15.466;2023-04-25T08:43:37;12.55;61.10
68098;DHT22;54886;47.036;15.466;2023-04-25T08:46:02;12.63;60.20
68098;DHT22;54886;47.036;15.466;2023-04-25T08:48:32;12.65;58.28
68098;DHT22;54886;47.036;15.466;2023-04-25T08:50:58;12.68;59.88
68098;DHT22;54886;47.036;15.466;2023-04-25T08:53:28;12.72;60.60
68098;DHT22;54886;47.036;15.466;2023-04-25T08:55:54;12.70;59.99
68098;DHT22;54886;47.036;15.466;2023-04-25T08:58:20;12.75;60.59
68098;DHT22;54886;47.036;15.466;2023-04-25T09:00:48;12.69;59.45
68098;DHT22;54886;47.036;15.466;2023-04-25T09:03:15;12.69;59.27
68098;DHT22;54886;47.036;15.466;2023-04-25T09:05:41;12.72;58.97
68098;DHT22;54886;47.036;15.466;2023-04-25T09:08:06;12.75;59.34
68098;DHT22;54886;47.036;15.466;2023-04-25T09:10:32;12.82;58.17
68098;DHT22;54886;47.036;15.466;2023-04-25T09:13:14;12.89;58.06
68098;DHT22;54886;47.036;15.466;2023-04-25T09:15:54;12.90;55.80
68098;DHT22;54886;47.036;15.466;2023-04-25T09:18:33;12.92;58.93
68098;DHT22;54886;47.036;15.466;2023-04-25T09:21:10;12.95;57.73
68098;DHT22;54886;47.036;15.466;2023-04-25T09:23:45;12.97;57.91
68098;DHT22;54886;47.036;15.466;2023-04-25T09:26:17;12.96;58.58
68098;DHT22;54886;47.036;15.466;2023-04-25T09:28:43;13.04;57.28
68098;DHT22;54886;47.036;15.466;2023-04-25T09:31:11;13.08;56.60
68098;DHT22;54886;47.036;15.466;2023-04-25T09:33:37;13.13;58.16
68098;DHT22;54886;47.036;15.466;2023-04-25T09:36:06;13.18;57.04
68098;DHT22;54886;47.036;15.466;2023-04-25T09:38:42;13.24;56.83
68098;DHT22;54886;47.036;15.466;2023-04-25T09:41:09;13.30;57.22
68098;DHT22;54886;47.036;15.466;2023-04-25T09:43:35;13.30;57.13
68098;DHT22;54886;47.036;15.466;2023-04-25T09:46:01;13.38;56.20
68098;DHT22;54886;47.036;15.466;2023-04-25T09:48:29;13.47;54.81
68098;DHT22;54886;47.036;15.466;2023-04-25T09:51:11;13.57;54.52
68098;DHT22;54886;47.036;15.466;2023-04-25T09:53:41;13.57;54.34
68098;DHT22;54886;47.036;15.466;2023-04-25T09:56:07;13.68;55.85
68098;DHT22;54886;47.036;15.466;2023-04-25T09:58:34;13.73;55.48
68098;DHT22;54886;47.036;15.466;2023-04-25T10:01:03;13.79;53.21
68098;DHT22;54886;47.036;15.466;2023-04-25T10:03:36;13.83;54.44
68098;DHT22;54886;47.036;15.466;2023-04-25T10:06:04;13.95;54.38
68098;DHT22;54886;47.036;15.466;2023-04-25T10:08:33;14.00;54.01
68098;DHT22;54886;47.036;15.466;2023-04-25T10:11:04;14.04;53.47
68098;DHT22;54886;47.036;15.466;2023-04-25T10:13:30;14.09;54.50
68098;DHT22;54886;47.036;15.466;2023-04-25T10:16:00;14.13;55.42
68098;DHT22;54886;47.036;15.466;2023-04-25T10:18:27;14.17;51.22
68098;DHT22;54886;47.036;15.466;2023-04-25T10:20:57;14.21;53.72
68098;DHT22;54886;47.036;15.466;2023-04-25T10:23:24;14.25;52.39
68098;DHT22;54886;47.036;15.466;2023-04-25T10:25:53;14.31;53.00
68098;DHT22;54886;47.036;15.466;2023-04-25T10:28:19;14.42;52.66
68098;DHT22;54886;47.036;15.466;2023-04-25T10:31:04;14.48;51.83
68098;DHT22;54886;47.036;15.466;2023-04-25T10:33:36;14.59;52.53
68098;DHT22;54886;47.036;15.466;2023-04-25T10:36:13;14.62;53.01
68098;DHT22;54886;47.036;15.466;2023-04-25T10:38:40;14.69;52.14
68098;DHT22;54886;47.036;15.466;2023-04-25T10:41:07;14.68;52.02
68098;DHT22;54886;47.036;15.466;2023-04-25T10:43:45;14.67;50.67
68098;DHT22;54886;47.036;15.466;2023-04-25T10:46:25;14.62;50.45
68098;DHT22;54886;47.036;15.466;2023-04-25T10:48:54;14.65;50.45
68098;DHT22;54886;47.036;15.466;2023-04-25T10:54:06;14.72;52.32
68098;DHT22;54886;47.036;15.466;2023-04-25T10:56:33;14.71;51.05
68098;DHT22;54886;47.036;15.466;2023-04-25T11:01:46;14.87;50.24
68098;DHT22;54886;47.036;15.466;2023-04-25T11:04:21;14.90;51.09
68098;DHT22;54886;47.036;15.466;2023-04-25T11:07:02;15.07;51.81
68098;DHT22;54886;47.036;15.466;2023-04-25T11:09:35;15.19;49.57
68098;DHT22;54886;47.036;15.466;2023-04-25T11:12:01;15.23;48.72
68098;DHT22;54886;47.036;15.466;2023-04-25T11:14:27;15.26;48.81
68098;DHT22;54886;47.036;15.466;2023-04-25T11:16:53;15.24;51.13
68098;DHT22;54886;47.036;15.466;2023-04-25T11:19:21;15.23;47.86
68098;DHT22;54886;47.036;15.466;2023-04-25T11:21:46;15.17;48.12
68098;DHT22;54886;47.036;15.466;2023-04-25T11:24:11;15.20;47.87
68098;DHT22;54886;47.036;15.466;2023-04-25T11:26:37;15.19;47.81
68098;DHT22;54886;47.036;15.466;2023-04-25T11:29:03;15.16;48.46
68098;DHT22;54886;47.036;15.466;2023-04-25T11:31:29;15.13;46.75
68098;DHT22;54886;47.036;15.466;2023-04-25T11:33:57;15.06;50.75
68098;DHT22;54886;47.036;15.466;2023-04-25T11:36:24;15.00;47.57
68098;DHT22;54886;47.036;15.466;2023-04-25T11:38:50;14.97;49.27
68098;DHT22;54886;47.036;15.466;2023-04-25T11:41:17;14.97;47.92
68098;DHT22;54886;47.036;15.466;2023-04-25T11:43:43;14.93;48.40
68098;DHT22;54886;47.036;15.466;2023-04-25T11:46:09;14.90;48.21
68098;DHT22;54886;47.036;15.466;2023-04-25T11:48:42;14.85;50.09
68098;DHT22;54886;47.036;15.466;2023-04-25T11:51:07;14.76;50.21
68098;DHT22;54886;47.036;15.466;2023-04-25T11:53:33;14.75;51.54
68098;DHT22;54886;47.036;15.466;2023-04-25T11:55:59;14.68;49.47
68098;DHT22;54886;47.036;15.466;2023-04-25T11:58:25;14.67;52.74
68098;DHT22;54886;47.036;15.466;2023-04-25T12:00:51;14.61;50.38
68098;DHT22;54886;47.036;15.466;2023-04-25T12:03:17;14.62;49.62
68098;DHT22;54886;47.036;15.466;2023-04-25T12:05:44;14.61;50.24
68098;DHT22;54886;47.036;15.466;2023-04-25T12:08:13;14.61;50.85
68098;DHT22;54886;47.036;15.466;2023-04-25T12:10:40;14.64;53.12
68098;DHT22;54886;47.036;15.466;2023-04-25T12:13:21;14.54;50.43
68098;DHT22;54886;47.036;15.466;2023-04-25T12:15:47;14.49;52.00
68098;DHT22;54886;47.036;15.466;2023-04-25T12:18:13;14.48;49.85
68098;DHT22;54886;47.036;15.466;2023-04-25T12:20:38;14.49;48.25
68098;DHT22;54886;47.036;15.466;2023-04-25T12:23:07;14.54;50.17
68098;DHT22;54886;47.036;15.466;2023-04-25T12:25:41;14.58;50.64
68098;DHT22;54886;47.036;15.466;2023-04-25T12:28:16;14.61;51.11
68098;DHT22;54886;47.036;15.466;2023-04-25T12:33:19;14.78;50.99
68098;DHT22;54886;47.036;15.466;2023-04-25T12:35:44;14.83;49.03
68098;DHT22;54886;47.036;15.466;2023-04-25T12:38:09;14.92;50.40
68098;DHT22;54886;47.036;15.466;2023-04-25T12:40:35;14.97;50.79
68098;DHT22;54886;47.036;15.466;2023-04-25T12:43:01;15.02;52.69
68098;DHT22;54886;47.036;15.466;2023-04-25T12:45:26;15.06;53.24
68098;DHT22;54886;47.036;15.466;2023-04-25T12:47:51;15.07;52.38
68098;DHT22;54886;47.036;15.466;2023-04-25T12:50:17;15.13;52.09
68098;DHT22;54886;47.036;15.466;2023-04-25T12:52:42;15.11;50.79
68098;DHT22;54886;47.036;15.466;2023-04-25T12:55:07;15.08;52.80
68098;DHT22;54886;47.036;15.466;2023-04-25T12:57:33;15.13;54.98
68098;DHT22;54886;47.036;15.466;2023-04-25T12:59:58;15.10;52.08
68098;DHT22;54886;47.036;15.466;2023-04-25T13:02:23;15.10;53.75
68098;DHT22;54886;47.036;15.466;2023-04-25T13:04:49;15.10;54.54
68098;DHT22;54886;47.036;15.466;2023-04-25T13:07:14;15.07;54.30
68098;DHT22;54886;47.036;15.466;2023-04-25T13:09:41;15.14;55.82
68098;DHT22;54886;47.036;15.466;2023-04-25T13:12:06;15.20;54.15
68098;DHT22;54886;47.036;15.466;2023-04-25T13:14:32;15.20;55.38
68098;DHT22;54886;47.036;15.466;2023-04-25T13:16:57;15.21;54.95
68098;DHT22;54886;47.036;15.466;2023-04-25T13:19:23;15.20;55.52
68098;DHT22;54886;47.036;15.466;2023-04-25T13:21:48;15.26;54.24
68098;DHT22;54886;47.036;15.466;2023-04-25T13:24:14;15.28;54.28
68098;DHT22;54886;47.036;15.466;2023-04-25T13:26:39;15.32;52.31
68098;DHT22;54886;47.036;15.466;2023-04-25T13:29:05;15.37;53.06
68098;DHT22;54886;47.036;15.466;2023-04-25T13:31:31;15.41;52.42
68098;DHT22;54886;47.036;15.466;2023-04-25T13:33:56;15.45;51.59
68098;DHT22;54886;47.036;15.466;2023-04-25T13:36:21;15.55;52.89
68098;DHT22;54886;47.036;15.466;2023-04-25T13:38:47;15.58;53.17
68098;DHT22;54886;47.036;15.466;2023-04-25T13:41:14;15.57;52.38
68098;DHT22;54886;47.036;15.466;2023-04-25T13:43:43;15.59;52.30
68098;DHT22;54886;47.036;15.466;2023-04-25T13:46:09;15.65;52.41
68098;DHT22;54886;47.036;15.466;2023-04-25T13:48:35;15.66;49.73
68098;DHT22;54886;47.036;15.466;2023-04-25T13:51:00;15.68;50.85
68098;DHT22;54886;47.036;15.466;2023-04-25T13:53:25;15.66;51.81
68098;DHT22;54886;47.036;15.466;2023-04-25T13:55:51;15.70;51.93
68098;DHT22;54886;47.036;15.466;2023-04-25T13:58:16;15.70;52.96
68098;DHT22;54886;47.036;15.466;2023-04-25T14:00:42;15.75;50.09
68098;DHT22;54886;47.036;15.466;2023-04-25T14:03:08;15.72;50.63
68098;DHT22;54886;47.036;15.466;2023-04-25T14:05:35;15.76;51.53
68098;DHT22;54886;47.036;15.466;2023-04-25T14:08:04;15.76;50.90
68098;DHT22;54886;47.036;15.466;2023-04-25T14:10:31;15.79;50.88
68098;DHT22;54886;47.036;15.466;2023-04-25T14:12:56;15.78;50.82
68098;DHT22;54886;47.036;15.466;2023-04-25T14:15:21;15.81;50.36
68098;DHT22;54886;47.036;15.466;2023-04-25T14:17:47;15.76;52.07
68098;DHT22;54886;47.036;15.466;2023-04-25T14:20:13;15.70;50.73
68098;DHT22;54886;47.036;15.466;2023-04-25T14:22:39;15.75;52.43
68098;DHT22;54886;47.036;15.466;2023-04-25T14:25:08;15.78;51.05
68098;DHT22;54886;47.036;15.466;2023-04-25T14:27:34;15.73;50.62
68098;DHT22;54886;47.036;15.466;2023-04-25T14:29:59;15.76;49.55
68098;DHT22;54886;47.036;15.466;2023-04-25T14:32:25;15.75;49.45
68098;DHT22;54886;47.036;15.466;2023-04-25T14:34:50;15.72;50.25
68098;DHT22;54886;47.036;15.466;2023-04-25T14:37:16;15.65;50.89
68098;DHT22;54886;47.036;15.466;2023-04-25T14:39:41;15.68;50.83
68098;DHT22;54886;47.036;15.466;2023-04-25T14:42:07;15.68;51.67
68098;DHT22;54886;47.036;15.466;2023-04-25T14:44:32;15.70;51.42
68098;DHT22;54886;47.036;15.466;2023-04-25T14:46:57;15.68;49.00
68098;DHT22;54886;47.036;15.466;2023-04-25T14:49:23;15.69;50.74
68098;DHT22;54886;47.036;15.466;2023-04-25T14:51:48;15.68;53.17
68098;DHT22;54886;47.036;15.466;2023-04-25T14:54:15;15.62;49.22
68098;DHT22;54886;47.036;15.466;2023-04-25T14:56:40;15.58;49.84
68098;DHT22;54886;47.036;15.466;2023-04-25T14:59:06;15.54;49.67
68098;DHT22;54886;47.036;15.466;2023-04-25T15:01:32;15.51;51.69
68098;DHT22;54886;47.036;15.466;2023-04-25T15:03:57;15.50;52.94
68098;DHT22;54886;47.036;15.466;2023-04-25T15:06:22;15.44;50.92
68098;DHT22;54886;47.036;15.466;2023-04-25T15:08:51;15.42;50.52
68098;DHT22;54886;47.036;15.466;2023-04-25T15:11:16;15.47;52.90
68098;DHT22;54886;47.036;15.466;2023-04-25T15:13:42;15.45;52.90
68098;DHT22;54886;47.036;15.466;2023-04-25T15:16:08;15.48;52.92
68098;DHT22;54886;47.036;15.466;2023-04-25T15:18:33;15.45;50.80
68098;DHT22;54886;47.036;15.466;2023-04-25T15:20:58;15.42;47.90
68098;DHT22;54886;47.036;15.466;2023-04-25T15:23:24;15.48;49.07